Map

Track Data

SID SEASON NUMBER BASIN SUBBASIN NAME ISO_TIME NATURE LAT LON WMO_WIND WMO_PRES WMO_AGENCY TRACK_TYPE DIST2LAND LANDFALL IFLAG USA_AGENCY USA_ATCF_ID USA_LAT USA_LON USA_RECORD USA_STATUS USA_WIND USA_PRES USA_SSHS USA_R34_NE USA_R34_SE USA_R34_SW USA_R34_NW USA_R50_NE USA_R50_SE USA_R50_SW USA_R50_NW USA_R64_NE USA_R64_SE USA_R64_SW USA_R64_NW USA_POCI USA_ROCI USA_RMW USA_EYE TOKYO_LAT TOKYO_LON TOKYO_GRADE TOKYO_WIND TOKYO_PRES TOKYO_R50_DIR TOKYO_R50_LONG TOKYO_R50_SHORT TOKYO_R30_DIR TOKYO_R30_LONG TOKYO_R30_SHORT TOKYO_LAND CMA_LAT CMA_LON CMA_CAT CMA_WIND CMA_PRES HKO_LAT HKO_LON HKO_CAT HKO_WIND HKO_PRES NEWDELHI_LAT NEWDELHI_LON NEWDELHI_GRADE NEWDELHI_WIND NEWDELHI_PRES NEWDELHI_CI NEWDELHI_DP NEWDELHI_POCI REUNION_LAT REUNION_LON REUNION_TYPE REUNION_WIND REUNION_PRES REUNION_TNUM REUNION_CI REUNION_RMW REUNION_R34_NE REUNION_R34_SE REUNION_R34_SW REUNION_R34_NW REUNION_R50_NE REUNION_R50_SE REUNION_R50_SW REUNION_R50_NW REUNION_R64_NE REUNION_R64_SE REUNION_R64_SW REUNION_R64_NW BOM_LAT BOM_LON BOM_TYPE BOM_WIND BOM_PRES BOM_TNUM BOM_CI BOM_RMW BOM_R34_NE BOM_R34_SE BOM_R34_SW BOM_R34_NW BOM_R50_NE BOM_R50_SE BOM_R50_SW BOM_R50_NW BOM_R64_NE BOM_R64_SE BOM_R64_SW BOM_R64_NW BOM_ROCI BOM_POCI BOM_EYE BOM_POS_METHOD BOM_PRES_METHOD NADI_LAT NADI_LON NADI_CAT NADI_WIND NADI_PRES WELLINGTON_LAT WELLINGTON_LON WELLINGTON_WIND WELLINGTON_PRES DS824_LAT DS824_LON DS824_STAGE DS824_WIND DS824_PRES TD9636_LAT TD9636_LON TD9636_STAGE TD9636_WIND TD9636_PRES TD9635_LAT TD9635_LON TD9635_WIND TD9635_PRES TD9635_ROCI NEUMANN_LAT NEUMANN_LON NEUMANN_CLASS NEUMANN_WIND NEUMANN_PRES MLC_LAT MLC_LON MLC_CLASS MLC_WIND MLC_PRES USA_GUST BOM_GUST BOM_GUST_PER REUNION_GUST REUNION_GUST_PER USA_SEAHGT USA_SEARAD_NE USA_SEARAD_SE USA_SEARAD_SW USA_SEARAD_NW STORM_SPEED STORM_DIR
1906029S17147 1906 5 SP EA NOT_NAMED 1906-01-28 12:00:00 NR -16.6000 146.500 main 78 78 __________O___ -1 -16.6000 146.500 7 1 0
1906029S17147 1906 5 SP EA NOT_NAMED 1906-01-28 15:00:00 NR -16.6186 146.481 main 78 69 __________P___ -1 -16.6186 146.481 7 1 235
1906029S17147 1906 5 SP EA NOT_NAMED 1906-01-28 18:00:00 NR -16.6398 146.440 main 69 62 __________P___ -1 -16.6398 146.440 7 1 249
1906029S17147 1906 5 SP EA NOT_NAMED 1906-01-28 21:00:00 NR -16.6661 146.354 main 62 46 __________P___ -1 -16.6661 146.354 7 2 255
1906029S17147 1906 5 SP EA NOT_NAMED 1906-01-29 00:00:00 NR -16.7000 146.200 main 46 30 __________O___ -1 -16.7000 146.200 7 4 258
1906029S17147 1906 5 SP EA NOT_NAMED 1906-01-29 03:00:00 NR -16.7430 145.965 main 30 0 __________P___ -1 -16.7430 145.965 7 5 260
1906029S17147 1906 5 SP EA NOT_NAMED 1906-01-29 06:00:00 NR -16.7928 145.668 main 0 0 __________P___ -1 -16.7928 145.668 7 6 260
1906029S17147 1906 5 SP EA NOT_NAMED 1906-01-29 09:00:00 NR -16.8461 145.337 main 0 0 __________P___ -1 -16.8461 145.337 7 6 260
1906029S17147 1906 5 SP EA NOT_NAMED 1906-01-29 12:00:00 NR -16.9000 145.000 main 0 0 __________O___ -1 -16.9000 145.000 7 6 262
1906029S17147 1906 5 SP EA NOT_NAMED 1906-01-29 15:00:00 NR -16.9292 144.732 main 0 0 __________P___ -1 -16.9292 144.732 7 5 263
1906029S17147 1906 5 SP EA NOT_NAMED 1906-01-29 18:00:00 NR -16.9617 144.459 main 0 0 __________P___ -1 -16.9617 144.459 7 6 261
1906029S17147 1906 5 SP EA NOT_NAMED 1906-01-29 21:00:00 NR -17.0134 144.157 main 0 0 __________P___ -1 -17.0134 144.157 7 6 258
1906029S17147 1906 5 SP EA NOT_NAMED 1906-01-30 00:00:00 NR -17.1000 143.800 main 0 0 __________O___ -1 -17.1000 143.800 7 8 258
1906029S17147 1906 5 SP EA NOT_NAMED 1906-01-30 03:00:00 NR -17.1912 143.317 main 0 0 __________P___ -1 -17.1912 143.317 7 10 257
1906029S17147 1906 5 SP EA NOT_NAMED 1906-01-30 06:00:00 NR -17.3238 142.785 main 0 0 __________P___ -1 -17.3238 142.785 7 11 252
1906029S17147 1906 5 SP EA NOT_NAMED 1906-01-30 09:00:00 NR -17.5193 142.260 main 0 0 __________P___ -1 -17.5193 142.260 7 11 243
1906029S17147 1906 5 SP EA NOT_NAMED 1906-01-30 12:00:00 NR -17.8000 141.800 main 0 0 __________O___ -1 -17.8000 141.800 7 11 227
1906029S17147 1906 5 SP EA NOT_NAMED 1906-01-30 15:00:00 NR -18.2451 141.430 main 0 0 __________P___ -1 -18.2451 141.430 7 12 213
1906029S17147 1906 5 SP EA NOT_NAMED 1906-01-30 18:00:00 NR -18.7644 141.136 main 0 0 __________P___ -1 -18.7644 141.136 7 11 205
1906029S17147 1906 5 SP EA NOT_NAMED 1906-01-30 21:00:00 NR -19.2766 140.924 main 0 0 __________P___ -1 -19.2766 140.924 7 10 199
1906029S17147 1906 5 SP EA NOT_NAMED 1906-01-31 00:00:00 NR -19.7000 140.800 main 0 0 __________O___ -1 -19.7000 140.800 7 7 193
1906029S17147 1906 5 SP EA NOT_NAMED 1906-01-31 03:00:00 NR -19.9294 140.763 main 0 0 __________P___ -1 -19.9294 140.763 7 4 177
1906029S17147 1906 5 SP EA NOT_NAMED 1906-01-31 06:00:00 NR -20.0623 140.809 main 0 0 __________P___ -1 -20.0623 140.809 7 2 148
1906029S17147 1906 5 SP EA NOT_NAMED 1906-01-31 09:00:00 NR -20.1390 140.901 main 0 0 __________P___ -1 -20.1390 140.901 7 2 127
1906029S17147 1906 5 SP EA NOT_NAMED 1906-01-31 12:00:00 NR -20.2000 141.000 main 0 0 __________O___ -1 -20.2000 141.000 7 2 143
1906029S17147 1906 5 SP EA NOT_NAMED 1906-01-31 15:00:00 NR -20.3112 141.042 main 0 0 __________P___ -1 -20.3112 141.042 7 2 159
1906029S17147 1906 5 SP EA NOT_NAMED 1906-01-31 18:00:00 NR -20.4150 141.085 main 0 0 __________P___ -1 -20.4150 141.085 7 2 155
1906029S17147 1906 5 SP EA NOT_NAMED 1906-01-31 21:00:00 NR -20.5112 141.136 main 0 0 __________P___ -1 -20.5112 141.136 7 2 150
1906029S17147 1906 5 SP EA NOT_NAMED 1906-02-01 00:00:00 NR -20.6000 141.200 main 0 0 __________O___ -1 -20.6000 141.200 7 2 140
1906029S17147 1906 5 SP EA NOT_NAMED 1906-02-01 03:00:00 NR -20.6822 141.290 main 0 0 __________P___ -1 -20.6822 141.290 7 2 131
1906029S17147 1906 5 SP EA NOT_NAMED 1906-02-01 06:00:00 NR -20.7575 141.393 main 0 0 __________P___ -1 -20.7575 141.393 7 2 127
1906029S17147 1906 5 SP EA NOT_NAMED 1906-02-01 09:00:00 NR -20.8291 141.499 main 0 0 __________P___ -1 -20.8291 141.499 7 2 126
1906029S17147 1906 5 SP EA NOT_NAMED 1906-02-01 12:00:00 NR -20.9000 141.600 main 0 0 __________O___ -1 -20.9000 141.600 7 2 130
1906029S17147 1906 5 SP EA NOT_NAMED 1906-02-01 15:00:00 NR -20.9750 141.682 main 0 0 __________P___ -1 -20.9750 141.682 7 2 136
1906029S17147 1906 5 SP EA NOT_NAMED 1906-02-01 18:00:00 NR -21.0500 141.758 main 0 0 __________P___ -1 -21.0500 141.758 7 2 138
1906029S17147 1906 5 SP EA NOT_NAMED 1906-02-01 21:00:00 NR -21.1250 141.829 main 0 0 __________P___ -1 -21.1250 141.829 7 2 139
1906029S17147 1906 5 SP EA NOT_NAMED 1906-02-02 00:00:00 NR -21.2000 141.900 main 0 0 __________O___ -1 -21.2000 141.900 7 2 135
1906029S17147 1906 5 SP EA NOT_NAMED 1906-02-02 03:00:00 NR -21.2750 141.991 main 0 0 __________P___ -1 -21.2750 141.991 7 2 132
1906029S17147 1906 5 SP EA NOT_NAMED 1906-02-02 06:00:00 NR -21.3500 142.080 main 0 0 __________P___ -1 -21.3500 142.080 7 2 135
1906029S17147 1906 5 SP EA NOT_NAMED 1906-02-02 09:00:00 NR -21.4250 142.154 main 0 0 __________P___ -1 -21.4250 142.154 7 2 144
1906029S17147 1906 5 SP EA NOT_NAMED 1906-02-02 12:00:00 NR -21.5000 142.200 main 0 0 __________O___ -1 -21.5000 142.200 7 2 161
1906029S17147 1906 5 SP EA NOT_NAMED 1906-02-02 15:00:00 NR -21.5750 142.210 main 0 0 __________P___ -1 -21.5750 142.210 7 2 0
1906029S17147 1906 5 SP EA NOT_NAMED 1906-02-02 18:00:00 NR -21.6500 142.190 main 0 0 __________P___ -1 -21.6500 142.190 7 2 199
1906029S17147 1906 5 SP EA NOT_NAMED 1906-02-02 21:00:00 NR -21.7250 142.150 main 0 0 __________P___ -1 -21.7250 142.150 7 2 207
1906029S17147 1906 5 SP EA NOT_NAMED 1906-02-03 00:00:00 NR -21.8000 142.100 main 0 __________O___ -1 -21.8000 142.100 7 2 212

Digital Typhoon Data and Search

About IBTrACS Database

This database is a web-friendly format of International Best Track Archive for Climate Stewardship (IBTrACS), a global best track data archive curated by NOAA dating back to 1842.

Updated: 2021-10-08